createdAt,value
2019-02-05T00:00:00.024Z,3.42
2019-02-05T00:02:28.646Z,3.67
2019-02-05T00:04:57.233Z,3.02
2019-02-05T00:07:25.771Z,2.98
2019-02-05T00:09:54.357Z,2.80
2019-02-05T00:12:22.883Z,9.90
2019-02-05T00:14:51.526Z,3.87
2019-02-05T00:17:20.062Z,5.72
2019-02-05T00:19:48.584Z,4.20
2019-02-05T00:22:17.218Z,6.10
2019-02-05T00:24:45.840Z,3.47
2019-02-05T00:27:14.462Z,4.28
2019-02-05T00:29:42.980Z,3.77
2019-02-05T00:32:11.598Z,4.03
2019-02-05T00:34:40.116Z,3.10
2019-02-05T00:37:09.078Z,5.83
2019-02-05T00:39:38.012Z,3.02
2019-02-05T00:42:06.956Z,5.62
2019-02-05T00:44:35.574Z,4.05
2019-02-05T00:47:04.175Z,4.42
2019-02-05T00:49:32.717Z,5.33
2019-02-05T00:52:01.564Z,4.75
2019-02-05T00:54:30.550Z,2.20
2019-02-05T00:56:59.436Z,1.82
2019-02-05T00:59:28.393Z,2.87
2019-02-05T01:01:57.366Z,3.87
2019-02-05T01:04:26.469Z,4.08
2019-02-05T01:06:55.057Z,4.97
2019-02-05T01:09:23.930Z,6.25
2019-02-05T01:11:54.479Z,4.87
2019-02-05T01:14:23.066Z,4.80
2019-02-05T01:16:51.921Z,5.10
2019-02-05T01:19:20.788Z,5.53
2019-02-05T01:21:49.333Z,4.30
2019-02-05T01:24:17.860Z,6.22
2019-02-05T01:26:46.737Z,4.97
2019-02-05T01:29:15.256Z,4.70
2019-02-05T01:31:43.883Z,2.95
2019-02-05T01:34:12.771Z,6.42
2019-02-05T01:36:41.309Z,4.40
2019-02-05T01:39:09.997Z,5.10
2019-02-05T01:41:38.534Z,6.72
2019-02-05T01:44:07.456Z,6.70
2019-02-05T01:46:36.005Z,6.92
2019-02-05T01:49:05.095Z,8.05
2019-02-05T01:51:33.651Z,4.35
2019-02-05T01:54:02.241Z,4.80
2019-02-05T01:56:40.393Z,4.42
2019-02-05T01:59:20.545Z,3.98
2019-02-05T02:01:49.122Z,6.95
2019-02-05T02:04:17.975Z,6.80
2019-02-05T02:06:47.195Z,7.40
2019-02-05T02:09:16.129Z,6.20
2019-02-05T02:11:44.681Z,4.25
2019-02-05T02:14:13.529Z,4.67
2019-02-05T02:16:42.104Z,6.83
2019-02-05T02:19:10.979Z,8.18
2019-02-05T02:21:39.996Z,5.10
2019-02-05T02:24:09.067Z,3.87
2019-02-05T02:26:37.775Z,4.47
2019-02-05T02:29:06.901Z,4.70
2019-02-05T02:31:35.824Z,4.70
2019-02-05T02:34:04.780Z,4.70
2019-02-05T02:36:33.640Z,5.10
2019-02-05T02:39:02.754Z,3.52
2019-02-05T02:41:31.314Z,3.30
2019-02-05T02:43:59.939Z,4.35
2019-02-05T02:46:28.443Z,5.28
2019-02-05T02:51:34.190Z,10.32
2019-02-05T02:54:03.084Z,5.65
2019-02-05T02:56:31.950Z,6.00
2019-02-05T02:59:00.525Z,8.93
2019-02-05T03:01:29.070Z,6.67
2019-02-05T03:03:57.979Z,5.55
2019-02-05T03:06:26.864Z,5.42
2019-02-05T03:08:56.115Z,12.98
2019-02-05T03:11:25.088Z,4.40
2019-02-05T03:13:53.629Z,7.65
2019-02-05T03:16:22.497Z,8.60
2019-02-05T03:18:51.417Z,5.42
2019-02-05T03:21:19.994Z,5.97
2019-02-05T03:23:48.554Z,8.20
2019-02-05T03:26:17.414Z,5.95
2019-02-05T03:28:46.376Z,5.90
2019-02-05T03:31:14.940Z,4.80
2019-02-05T03:33:43.791Z,6.97
2019-02-05T03:36:12.657Z,6.78
2019-02-05T03:38:41.501Z,8.45
2019-02-05T03:41:10.090Z,6.87
2019-02-05T03:43:38.818Z,6.05
2019-02-05T03:46:07.757Z,4.95
2019-02-05T03:48:36.653Z,10.13
2019-02-05T03:51:06.818Z,8.05
2019-02-05T03:53:36.887Z,9.05
2019-02-05T03:56:16.319Z,9.13
2019-02-05T03:58:49.597Z,8.10
2019-02-05T04:01:22.801Z,10.18
2019-02-05T04:04:09.361Z,7.08
2019-02-05T04:06:39.441Z,5.20
2019-02-05T04:09:09.914Z,10.58
2019-02-05T04:11:52.369Z,11.18
2019-02-05T04:14:44.398Z,7.47
2019-02-05T04:17:37.067Z,9.88
2019-02-05T04:20:10.013Z,19.55
2019-02-05T04:22:40.086Z,9.60
2019-02-05T04:25:33.309Z,9.90
2019-02-05T04:28:11.244Z,8.95
2019-02-05T04:30:49.030Z,14.18
2019-02-05T04:33:33.293Z,7.33
2019-02-05T04:36:03.460Z,7.55
2019-02-05T04:38:47.168Z,9.35
2019-02-05T04:41:27.769Z,6.85
2019-02-05T04:44:30.753Z,7.62
2019-02-05T04:47:03.863Z,14.70
2019-02-05T04:49:51.057Z,11.12
2019-02-05T04:52:23.859Z,12.43
2019-02-05T04:55:08.351Z,11.28
2019-02-05T04:57:40.466Z,8.40
2019-02-05T05:00:25.831Z,10.35
2019-02-05T05:03:23.487Z,9.00
2019-02-05T05:05:58.335Z,9.90
2019-02-05T05:08:45.661Z,10.38
2019-02-05T05:11:14.739Z,13.55
2019-02-05T05:13:43.643Z,11.78
2019-02-05T05:16:12.214Z,12.13
2019-02-05T05:18:41.066Z,11.12
2019-02-05T05:21:09.940Z,9.85
2019-02-05T05:23:38.522Z,9.45
2019-02-05T05:26:07.518Z,11.08
2019-02-05T05:28:37.872Z,11.83
2019-02-05T05:31:06.407Z,8.35
2019-02-05T05:33:35.356Z,14.85
2019-02-05T05:36:04.446Z,16.93
2019-02-05T05:38:33.316Z,8.60
2019-02-05T05:41:01.930Z,8.75
2019-02-05T05:43:50.165Z,19.12
2019-02-05T05:46:19.013Z,16.12
2019-02-05T05:48:47.912Z,10.50
2019-02-05T05:51:16.848Z,12.10
2019-02-05T05:53:45.721Z,15.80
2019-02-05T05:56:14.594Z,8.83
2019-02-05T05:58:43.545Z,14.75
2019-02-05T06:01:12.412Z,10.72
2019-02-05T06:03:41.294Z,16.70
2019-02-05T06:06:09.816Z,12.53
2019-02-05T06:08:38.812Z,12.58
2019-02-05T06:11:07.327Z,15.48
2019-02-05T06:13:36.501Z,6.17
2019-02-05T06:16:05.369Z,13.50
2019-02-05T06:18:34.245Z,8.18
2019-02-05T06:21:03.090Z,10.10
2019-02-05T06:23:31.678Z,10.70
2019-02-05T06:26:00.223Z,9.83
2019-02-05T06:28:34.613Z,10.35
2019-02-05T06:30:59.042Z,11.63
2019-02-05T06:33:27.879Z,6.08
2019-02-05T06:35:56.524Z,13.53
2019-02-05T06:38:25.401Z,7.65
2019-02-05T06:40:54.024Z,15.23
2019-02-05T06:43:22.737Z,10.05
2019-02-05T06:45:51.663Z,10.20
2019-02-05T06:48:20.521Z,7.95
2019-02-05T06:50:49.406Z,12.60
2019-02-05T06:53:18.337Z,7.78
2019-02-05T06:55:47.232Z,7.42
2019-02-05T06:58:15.788Z,11.30
2019-02-05T07:00:44.343Z,10.40
2019-02-05T07:03:13.532Z,9.55
2019-02-05T07:06:01.468Z,10.15
2019-02-05T07:08:30.479Z,4.78
2019-02-05T07:10:59.458Z,11.28
2019-02-05T07:13:28.402Z,8.25
2019-02-05T07:15:57.602Z,9.73
2019-02-05T07:18:26.315Z,4.33
2019-02-05T07:20:55.201Z,9.05
2019-02-05T07:23:23.864Z,14.70
2019-02-05T07:25:52.795Z,9.10
2019-02-05T07:28:21.391Z,9.88
2019-02-05T07:30:50.386Z,12.18
2019-02-05T07:33:19.675Z,11.45
2019-02-05T07:35:48.227Z,6.67
2019-02-05T07:38:17.249Z,12.98
2019-02-05T07:40:46.199Z,9.05
2019-02-05T07:43:15.054Z,9.05
2019-02-05T07:45:43.933Z,7.97
2019-02-05T07:48:12.909Z,14.13
2019-02-05T07:50:41.580Z,11.08
2019-02-05T07:53:10.689Z,8.40
2019-02-05T07:55:39.295Z,8.60
2019-02-05T07:58:08.251Z,13.30
2019-02-05T08:00:37.385Z,9.98
2019-02-05T08:03:06.419Z,15.10
2019-02-05T08:05:35.566Z,13.60
2019-02-05T08:08:05.283Z,9.18
2019-02-05T08:10:34.173Z,14.33
2019-02-05T08:13:03.210Z,11.80
2019-02-05T08:15:33.954Z,11.38
2019-02-05T08:18:03.377Z,9.55
2019-02-05T08:20:32.430Z,14.43
2019-02-05T08:23:01.445Z,11.00
2019-02-05T08:25:30.569Z,10.63
2019-02-05T08:27:59.823Z,11.45
2019-02-05T08:30:33.047Z,11.68
2019-02-05T08:33:01.949Z,9.88
2019-02-05T08:35:30.603Z,11.12
2019-02-05T08:37:59.151Z,11.90
2019-02-05T08:40:27.828Z,14.63
2019-02-05T08:42:56.774Z,10.35
2019-02-05T08:45:34.229Z,6.15
2019-02-05T08:48:03.249Z,15.18
2019-02-05T08:50:32.707Z,10.63
2019-02-05T08:53:21.164Z,11.43
2019-02-05T08:55:50.456Z,8.35
2019-02-05T08:58:30.277Z,7.75
2019-02-05T09:00:49.533Z,19.70
2019-02-05T09:03:18.459Z,13.53
2019-02-05T09:05:47.507Z,11.38
2019-02-05T09:08:16.418Z,7.22
2019-02-05T09:10:45.050Z,18.90
2019-02-05T09:13:35.154Z,14.98
2019-02-05T09:16:03.924Z,17.42
2019-02-05T09:18:32.911Z,7.95
2019-02-05T09:21:01.963Z,8.20
2019-02-05T09:23:30.912Z,13.58
2019-02-05T09:25:59.794Z,8.45
2019-02-05T09:28:28.694Z,11.33
2019-02-05T09:30:57.575Z,13.25
2019-02-05T09:33:26.656Z,9.48
2019-02-05T09:35:55.238Z,14.23
2019-02-05T09:38:24.139Z,7.58
2019-02-05T09:40:53.030Z,13.08
2019-02-05T09:43:22.032Z,15.13
2019-02-05T09:48:45.610Z,13.72
2019-02-05T09:51:14.568Z,12.43
2019-02-05T09:53:43.837Z,8.10
2019-02-05T09:56:12.711Z,12.63
2019-02-05T09:58:41.293Z,12.50
2019-02-05T10:01:09.925Z,11.25
2019-02-05T10:03:38.520Z,15.30
2019-02-05T10:06:07.615Z,15.23
2019-02-05T10:08:36.210Z,12.95
2019-02-05T10:11:05.469Z,12.47
2019-02-05T10:13:34.001Z,8.00
2019-02-05T10:16:03.078Z,11.93
2019-02-05T10:18:32.043Z,15.58
2019-02-05T10:21:00.637Z,16.27
2019-02-05T10:23:29.730Z,24.82
2019-02-05T10:25:58.705Z,18.02
2019-02-05T10:28:27.864Z,14.30
2019-02-05T10:30:56.659Z,15.55
2019-02-05T10:33:25.579Z,15.68
2019-02-05T10:35:54.561Z,19.45
2019-02-05T10:38:23.104Z,12.95
2019-02-05T10:40:52.165Z,20.70
2019-02-05T10:43:20.730Z,15.75
2019-02-05T10:45:49.494Z,19.70
2019-02-05T10:48:18.387Z,14.47
2019-02-05T10:50:47.378Z,15.55
2019-02-05T10:53:16.332Z,24.82
2019-02-05T10:55:45.247Z,17.40
2019-02-05T10:58:14.005Z,18.70
2019-02-05T11:00:43.176Z,24.63
2019-02-05T11:03:31.084Z,18.15
2019-02-05T11:05:59.974Z,12.28
2019-02-05T11:08:28.894Z,20.65
2019-02-05T11:10:57.466Z,13.58
2019-02-05T11:13:26.382Z,21.27
2019-02-05T11:15:55.264Z,18.20
2019-02-05T11:18:23.966Z,13.95
2019-02-05T11:20:52.497Z,9.58
2019-02-05T11:23:21.221Z,15.70
2019-02-05T11:25:49.818Z,13.22
2019-02-05T11:28:18.752Z,11.12
2019-02-05T11:30:48.070Z,13.65
2019-02-05T11:33:16.649Z,15.25
2019-02-05T11:35:45.749Z,12.07
2019-02-05T11:38:14.392Z,16.05
2019-02-05T11:40:43.523Z,16.42
2019-02-05T11:43:12.100Z,20.45
2019-02-05T11:45:41.047Z,9.53
2019-02-05T11:48:11.566Z,18.62
2019-02-05T11:50:40.203Z,11.93
2019-02-05T11:53:08.849Z,10.53
2019-02-05T11:55:37.600Z,9.45
2019-02-05T11:58:06.585Z,10.03
2019-02-05T12:00:48.982Z,16.75
2019-02-05T12:03:18.398Z,8.33
2019-02-05T12:05:48.596Z,13.68
2019-02-05T12:08:19.560Z,10.75
2019-02-05T12:10:48.169Z,14.58
2019-02-05T12:13:16.729Z,8.05
2019-02-05T12:15:45.696Z,10.95
2019-02-05T12:18:15.025Z,12.55
2019-02-05T12:20:44.454Z,12.00
2019-02-05T12:23:13.044Z,7.53
2019-02-05T12:25:41.666Z,12.73
2019-02-05T12:28:10.536Z,14.55
2019-02-05T12:30:45.376Z,17.35
2019-02-05T12:33:12.693Z,13.95
2019-02-05T12:35:41.289Z,9.13
2019-02-05T12:38:30.688Z,15.03
2019-02-05T12:41:20.179Z,8.83
2019-02-05T12:43:49.092Z,12.90
2019-02-05T12:46:17.709Z,13.93
2019-02-05T12:48:46.273Z,10.03
2019-02-05T12:51:14.891Z,12.23
2019-02-05T12:53:43.475Z,10.70
2019-02-05T12:56:12.104Z,13.00
2019-02-05T12:58:41.003Z,8.35
2019-02-05T13:01:09.864Z,12.80
2019-02-05T13:03:38.457Z,6.25
2019-02-05T13:06:07.085Z,7.67
2019-02-05T13:08:35.676Z,11.22
2019-02-05T13:11:04.549Z,7.20
2019-02-05T13:13:33.778Z,9.93
2019-02-05T13:16:04.528Z,7.60
2019-02-05T13:18:32.846Z,13.10
2019-02-05T13:21:01.487Z,13.15
2019-02-05T13:23:30.076Z,12.40
2019-02-05T13:25:59.016Z,10.53
2019-02-05T13:28:27.589Z,10.13
2019-02-05T13:31:07.762Z,14.28
2019-02-05T13:33:28.653Z,8.05
2019-02-05T13:35:57.538Z,12.20
2019-02-05T13:38:45.461Z,13.48
2019-02-05T13:41:14.514Z,13.53
2019-02-05T13:43:43.077Z,11.83
2019-02-05T13:46:12.982Z,10.68
2019-02-05T13:48:41.582Z,8.35
2019-02-05T13:51:10.583Z,7.05
2019-02-05T13:53:39.247Z,18.55
2019-02-05T13:56:09.596Z,12.90
2019-02-05T13:58:38.137Z,8.70
2019-02-05T14:01:06.788Z,7.78
2019-02-05T14:03:35.757Z,7.83
2019-02-05T14:06:04.897Z,8.93
2019-02-05T14:08:33.897Z,10.43
2019-02-05T14:11:02.574Z,9.70
2019-02-05T14:13:31.831Z,12.53
2019-02-05T14:16:00.543Z,9.23
2019-02-05T14:18:29.187Z,12.58
2019-02-05T14:20:59.153Z,8.20
2019-02-05T14:23:27.720Z,8.30
2019-02-05T14:25:56.424Z,6.37
2019-02-05T14:28:26.329Z,14.83
2019-02-05T14:30:55.166Z,9.80
2019-02-05T14:33:23.886Z,15.78
2019-02-05T14:35:52.644Z,12.93
2019-02-05T14:38:21.598Z,10.28
2019-02-05T14:40:50.962Z,8.20
2019-02-05T14:43:19.514Z,11.25
2019-02-05T14:45:48.244Z,9.68
2019-02-05T14:48:16.831Z,14.75
2019-02-05T14:50:47.504Z,9.38
2019-02-05T14:53:35.471Z,13.37
2019-02-05T14:56:04.416Z,14.70
2019-02-05T14:58:33.475Z,11.35
2019-02-05T15:01:02.027Z,13.10
2019-02-05T15:03:30.602Z,10.40
2019-02-05T15:06:00.798Z,11.60
2019-02-05T15:08:29.518Z,12.63
2019-02-05T15:11:17.741Z,9.85
2019-02-05T15:13:55.241Z,11.10
2019-02-05T15:16:24.297Z,11.80
2019-02-05T15:18:52.861Z,12.88
2019-02-05T15:21:24.450Z,14.45
2019-02-05T15:23:53.377Z,11.50
2019-02-05T15:26:21.953Z,7.22
2019-02-05T15:28:50.660Z,9.13
2019-02-05T15:31:19.237Z,12.63
2019-02-05T15:33:49.459Z,11.88
2019-02-05T15:36:37.347Z,7.15
2019-02-05T15:39:09.331Z,12.20
2019-02-05T15:41:37.894Z,9.03
2019-02-05T15:44:06.938Z,11.63
2019-02-05T15:46:35.579Z,9.00
2019-02-05T15:49:04.425Z,12.35
2019-02-05T15:51:52.320Z,15.10
2019-02-05T15:54:21.290Z,9.75
2019-02-05T15:56:50.286Z,9.20
2019-02-05T15:59:18.939Z,9.63
2019-02-05T16:01:47.566Z,11.85
2019-02-05T16:04:16.250Z,9.45
2019-02-05T16:06:44.802Z,8.48
2019-02-05T16:09:13.462Z,10.50
2019-02-05T16:11:42.186Z,11.15
2019-02-05T16:14:11.015Z,6.78
2019-02-05T16:16:39.608Z,13.25
2019-02-05T16:19:27.522Z,11.40
2019-02-05T16:21:56.070Z,5.90
2019-02-05T16:24:24.960Z,8.10
2019-02-05T16:26:53.907Z,10.65
2019-02-05T16:29:22.534Z,9.35
2019-02-05T16:31:51.454Z,13.43
2019-02-05T16:34:20.070Z,6.03
2019-02-05T16:36:49.032Z,8.75
2019-02-05T16:39:17.653Z,6.75
2019-02-05T16:41:46.551Z,11.45
2019-02-05T16:44:15.190Z,9.48
2019-02-05T16:46:43.794Z,8.85
2019-02-05T16:49:12.391Z,11.50
2019-02-05T16:51:40.923Z,7.87
2019-02-05T16:54:09.880Z,8.10
2019-02-05T16:56:38.866Z,11.12
2019-02-05T16:59:07.521Z,7.70
2019-02-05T17:01:36.112Z,12.45
2019-02-05T17:04:04.930Z,9.15
2019-02-05T17:06:33.865Z,9.65
2019-02-05T17:09:02.711Z,7.25
2019-02-05T17:11:31.595Z,11.73
2019-02-05T17:14:01.196Z,12.15
2019-02-05T17:16:29.752Z,15.28
2019-02-05T17:18:58.352Z,12.15
2019-02-05T17:21:26.981Z,9.68
2019-02-05T17:23:55.562Z,12.00
2019-02-05T17:26:24.113Z,8.78
2019-02-05T17:28:52.925Z,12.98
2019-02-05T17:31:21.466Z,14.87
2019-02-05T17:33:50.550Z,8.83
2019-02-05T17:36:19.218Z,9.43
2019-02-05T17:38:47.799Z,9.58
2019-02-05T17:41:16.969Z,14.43
2019-02-05T17:43:46.268Z,14.50
2019-02-05T17:46:15.365Z,13.80
2019-02-05T17:48:43.991Z,11.93
2019-02-05T17:51:12.626Z,13.95
2019-02-05T17:53:41.279Z,7.95
2019-02-05T17:56:09.945Z,12.43
2019-02-05T17:58:38.495Z,14.73
2019-02-05T18:01:08.806Z,11.43
2019-02-05T18:03:37.363Z,13.32
2019-02-05T18:06:06.533Z,17.90
2019-02-05T18:08:35.433Z,10.13
2019-02-05T18:11:04.613Z,15.00
2019-02-05T18:13:33.194Z,9.60
2019-02-05T18:16:22.796Z,9.60
2019-02-05T18:18:51.829Z,11.70
2019-02-05T18:21:20.525Z,10.32
2019-02-05T18:23:49.547Z,11.85
2019-02-05T18:26:18.604Z,17.25
2019-02-05T18:28:47.209Z,7.10
2019-02-05T18:31:15.795Z,11.57
2019-02-05T18:33:44.370Z,9.83
2019-02-05T18:36:13.037Z,10.98
2019-02-05T18:38:41.586Z,6.65
2019-02-05T18:41:10.578Z,17.77
2019-02-05T18:43:39.237Z,16.17
2019-02-05T18:46:08.063Z,14.45
2019-02-05T18:48:36.719Z,14.15
2019-02-05T18:51:05.461Z,12.40
2019-02-05T18:53:54.879Z,13.25
2019-02-05T18:56:23.816Z,13.68
2019-02-05T18:58:52.477Z,14.75
2019-02-05T19:01:21.269Z,16.45
2019-02-05T19:03:50.165Z,11.40
2019-02-05T19:06:19.115Z,12.95
2019-02-05T19:08:47.708Z,21.30
2019-02-05T19:11:16.346Z,17.05
2019-02-05T19:13:44.989Z,13.35
2019-02-05T19:16:13.568Z,14.40
2019-02-05T19:18:42.206Z,19.20
2019-02-05T19:21:10.764Z,22.15
2019-02-05T19:23:39.384Z,25.08
2019-02-05T19:26:13.201Z,20.10
2019-02-05T19:28:41.969Z,14.63
2019-02-05T19:31:17.969Z,20.90
2019-02-05T19:33:46.970Z,23.77
2019-02-05T19:36:15.665Z,24.70
2019-02-05T19:38:45.054Z,19.67
2019-02-05T19:41:13.651Z,16.12
2019-02-05T19:43:42.330Z,22.30
2019-02-05T19:46:29.129Z,15.20
2019-02-05T19:48:59.472Z,13.08
2019-02-05T19:51:28.104Z,19.02
2019-02-05T19:53:56.715Z,22.07
2019-02-05T19:56:25.309Z,20.30
2019-02-05T19:58:53.971Z,21.97
2019-02-05T20:01:22.726Z,19.85
2019-02-05T20:03:51.305Z,16.02
2019-02-05T20:06:19.978Z,17.40
2019-02-05T20:09:07.896Z,20.23
2019-02-05T20:11:36.540Z,19.85
2019-02-05T20:14:05.170Z,20.92
2019-02-05T20:16:34.184Z,20.82
2019-02-05T20:19:03.052Z,21.50
2019-02-05T20:21:32.075Z,25.20
2019-02-05T20:24:00.955Z,16.77
2019-02-05T20:26:30.036Z,20.32
2019-02-05T20:28:58.671Z,22.02
2019-02-05T20:31:27.332Z,19.95
2019-02-05T20:33:59.549Z,18.45
2019-02-05T20:36:28.440Z,24.05
2019-02-05T20:38:57.081Z,24.82
2019-02-05T20:41:26.003Z,19.52
2019-02-05T20:43:54.636Z,19.30
2019-02-05T20:46:23.338Z,20.40
2019-02-05T20:48:51.963Z,23.00
2019-02-05T20:51:20.609Z,17.05
2019-02-05T20:53:49.355Z,17.00
2019-02-05T20:56:19.800Z,10.55
2019-02-05T20:58:48.800Z,23.90
2019-02-05T21:01:18.147Z,21.35
2019-02-05T21:03:46.827Z,26.00
2019-02-05T21:06:21.665Z,21.80
2019-02-05T21:08:50.292Z,21.25
2019-02-05T21:11:18.968Z,20.10
2019-02-05T21:13:47.823Z,22.82
2019-02-05T21:16:16.435Z,18.40
2019-02-05T21:19:04.350Z,19.52
2019-02-05T21:21:33.009Z,15.83
2019-02-05T21:24:01.606Z,19.77
2019-02-05T21:26:30.789Z,20.00
2019-02-05T21:28:59.769Z,13.88
2019-02-05T21:31:28.445Z,15.32
2019-02-05T21:33:57.415Z,18.12
2019-02-05T21:36:26.027Z,23.52
2019-02-05T21:38:54.678Z,17.07
2019-02-05T21:41:23.794Z,20.43
2019-02-05T21:43:52.516Z,14.23
2019-02-05T21:46:21.135Z,17.60
2019-02-05T21:48:49.694Z,19.62
2019-02-05T21:51:18.808Z,15.83
2019-02-05T21:53:47.889Z,16.50
2019-02-05T21:56:16.756Z,28.70
2019-02-05T21:58:46.116Z,27.10
2019-02-05T22:01:14.771Z,16.25
2019-02-05T22:03:43.443Z,18.52
2019-02-05T22:06:12.305Z,20.92
2019-02-05T22:08:40.965Z,25.57
2019-02-05T22:11:09.934Z,16.90
2019-02-05T22:13:38.523Z,15.72
2019-02-05T22:16:28.290Z,20.80
2019-02-05T22:18:57.390Z,19.65
2019-02-05T22:21:26.005Z,22.30
2019-02-05T22:23:54.617Z,25.62
2019-02-05T22:26:23.354Z,24.25
2019-02-05T22:28:52.555Z,21.90
2019-02-05T22:31:21.135Z,18.75
2019-02-05T22:33:49.795Z,16.40
2019-02-05T22:36:18.368Z,17.67
2019-02-05T22:38:47.054Z,19.17
2019-02-05T22:41:16.010Z,11.93
2019-02-05T22:43:44.674Z,15.98
2019-02-05T22:46:13.199Z,19.02
2019-02-05T22:48:41.809Z,17.87
2019-02-05T22:51:10.708Z,19.35
2019-02-05T22:53:39.301Z,17.32
2019-02-05T22:56:07.872Z,23.90
2019-02-05T22:58:36.454Z,24.30
2019-02-05T23:01:14.375Z,19.80
2019-02-05T23:03:45.197Z,15.58
2019-02-05T23:06:44.064Z,26.37
2019-02-05T23:09:22.119Z,20.52
2019-02-05T23:11:52.244Z,18.90
2019-02-05T23:14:21.341Z,20.43
2019-02-05T23:16:49.931Z,21.30
2019-02-05T23:19:19.988Z,21.75
2019-02-05T23:21:48.593Z,17.05
2019-02-05T23:24:17.615Z,20.55
2019-02-05T23:26:46.136Z,19.27
2019-02-05T23:29:14.702Z,23.65
2019-02-05T23:31:43.241Z,23.00
2019-02-05T23:34:12.193Z,18.70
2019-02-05T23:36:40.751Z,24.90
2019-02-05T23:39:10.029Z,24.25
2019-02-05T23:41:38.625Z,18.27
2019-02-05T23:44:07.327Z,15.45
2019-02-05T23:46:35.990Z,13.43
2019-02-05T23:49:05.437Z,23.42
2019-02-05T23:51:34.411Z,21.07
2019-02-05T23:54:03.276Z,18.95
2019-02-05T23:56:31.896Z,18.37
2019-02-05T23:59:00.755Z,17.77
